sensor_id;sensor_type;location;lat;lon;timestamp;temperature;humidity
15455;DHT22;21057;51.024;7.540;2024-02-23T00:00:55;6.70;99.90
15455;DHT22;21057;51.024;7.540;2024-02-23T00:03:22;6.70;99.90
15455;DHT22;21057;51.024;7.540;2024-02-23T00:05:48;6.70;99.90
15455;DHT22;21057;51.024;7.540;2024-02-23T00:08:15;6.60;99.90
15455;DHT22;21057;51.024;7.540;2024-02-23T00:10:42;6.60;99.90
15455;DHT22;21057;51.024;7.540;2024-02-23T00:13:10;6.60;99.90
15455;DHT22;21057;51.024;7.540;2024-02-23T00:15:37;6.60;99.90
15455;DHT22;21057;51.024;7.540;2024-02-23T00:18:04;6.60;99.90
15455;DHT22;21057;51.024;7.540;2024-02-23T00:20:32;6.50;99.90
15455;DHT22;21057;51.024;7.540;2024-02-23T00:22:59;6.30;99.90
15455;DHT22;21057;51.024;7.540;2024-02-23T00:25:25;6.20;99.90
15455;DHT22;21057;51.024;7.540;2024-02-23T00:27:52;6.40;99.90
15455;DHT22;21057;51.024;7.540;2024-02-23T00:30:20;6.70;99.90
15455;DHT22;21057;51.024;7.540;2024-02-23T00:32:47;6.60;99.90
15455;DHT22;21057;51.024;7.540;2024-02-23T00:35:14;6.50;99.90
15455;DHT22;21057;51.024;7.540;2024-02-23T00:37:41;6.40;99.90
15455;DHT22;21057;51.024;7.540;2024-02-23T00:40:09;6.30;99.90
15455;DHT22;21057;51.024;7.540;2024-02-23T00:42:36;6.50;99.90
15455;DHT22;21057;51.024;7.540;2024-02-23T00:45:04;6.60;99.90
15455;DHT22;21057;51.024;7.540;2024-02-23T00:47:32;6.60;99.90
15455;DHT22;21057;51.024;7.540;2024-02-23T00:50:01;6.70;99.90
15455;DHT22;21057;51.024;7.540;2024-02-23T00:52:27;6.70;99.90
15455;DHT22;21057;51.024;7.540;2024-02-23T00:54:54;6.50;99.90
15455;DHT22;21057;51.024;7.540;2024-02-23T00:57:21;6.40;99.90
15455;DHT22;21057;51.024;7.540;2024-02-23T00:59:52;6.30;99.90
15455;DHT22;21057;51.024;7.540;2024-02-23T01:02:19;6.30;99.90
15455;DHT22;21057;51.024;7.540;2024-02-23T01:04:47;6.20;99.90
15455;DHT22;21057;51.024;7.540;2024-02-23T01:07:14;6.20;99.90
15455;DHT22;21057;51.024;7.540;2024-02-23T01:09:41;6.10;99.90
15455;DHT22;21057;51.024;7.540;2024-02-23T01:12:08;6.10;99.90
15455;DHT22;21057;51.024;7.540;2024-02-23T01:14:34;6.00;99.90
15455;DHT22;21057;51.024;7.540;2024-02-23T01:17:01;6.20;99.90
15455;DHT22;21057;51.024;7.540;2024-02-23T01:19:28;6.40;99.90
15455;DHT22;21057;51.024;7.540;2024-02-23T01:21:56;6.60;99.90
15455;DHT22;21057;51.024;7.540;2024-02-23T01:24:25;6.50;99.90
15455;DHT22;21057;51.024;7.540;2024-02-23T01:26:53;6.60;99.90
15455;DHT22;21057;51.024;7.540;2024-02-23T01:29:20;6.50;99.90
15455;DHT22;21057;51.024;7.540;2024-02-23T01:31:47;6.50;99.90
15455;DHT22;21057;51.024;7.540;2024-02-23T01:34:14;6.60;99.90
15455;DHT22;21057;51.024;7.540;2024-02-23T01:36:41;6.50;99.90
15455;DHT22;21057;51.024;7.540;2024-02-23T01:39:09;6.30;99.90
15455;DHT22;21057;51.024;7.540;2024-02-23T01:41:36;6.30;99.90
15455;DHT22;21057;51.024;7.540;2024-02-23T01:44:03;6.30;99.90
15455;DHT22;21057;51.024;7.540;2024-02-23T01:46:30;6.20;99.90
15455;DHT22;21057;51.024;7.540;2024-02-23T01:48:57;6.30;99.90
15455;DHT22;21057;51.024;7.540;2024-02-23T01:51:24;6.20;99.90
15455;DHT22;21057;51.024;7.540;2024-02-23T01:53:52;6.00;99.90
15455;DHT22;21057;51.024;7.540;2024-02-23T01:56:20;5.90;99.90
15455;DHT22;21057;51.024;7.540;2024-02-23T01:58:48;6.00;99.90
15455;DHT22;21057;51.024;7.540;2024-02-23T02:01:15;6.00;99.90
15455;DHT22;21057;51.024;7.540;2024-02-23T02:03:43;5.90;99.90
15455;DHT22;21057;51.024;7.540;2024-02-23T02:06:10;6.00;99.90
15455;DHT22;21057;51.024;7.540;2024-02-23T02:08:38;5.90;99.90
15455;DHT22;21057;51.024;7.540;2024-02-23T02:11:05;5.80;99.90
15455;DHT22;21057;51.024;7.540;2024-02-23T02:13:33;5.80;99.90
15455;DHT22;21057;51.024;7.540;2024-02-23T02:16:01;5.80;99.90
15455;DHT22;21057;51.024;7.540;2024-02-23T02:18:28;5.80;99.90
15455;DHT22;21057;51.024;7.540;2024-02-23T02:20:56;5.80;99.90
15455;DHT22;21057;51.024;7.540;2024-02-23T02:23:23;5.90;99.90
15455;DHT22;21057;51.024;7.540;2024-02-23T02:25:55;6.00;99.90
15455;DHT22;21057;51.024;7.540;2024-02-23T02:28:22;5.90;99.90
15455;DHT22;21057;51.024;7.540;2024-02-23T02:30:51;5.90;99.90
15455;DHT22;21057;51.024;7.540;2024-02-23T02:33:18;6.00;99.90
15455;DHT22;21057;51.024;7.540;2024-02-23T02:35:44;6.10;99.90
15455;DHT22;21057;51.024;7.540;2024-02-23T02:38:11;6.00;99.90
15455;DHT22;21057;51.024;7.540;2024-02-23T02:40:38;6.20;99.90
15455;DHT22;21057;51.024;7.540;2024-02-23T02:43:05;6.20;99.90
15455;DHT22;21057;51.024;7.540;2024-02-23T02:45:32;6.00;99.90
15455;DHT22;21057;51.024;7.540;2024-02-23T02:48:01;5.90;99.90
15455;DHT22;21057;51.024;7.540;2024-02-23T02:50:28;6.10;99.90
15455;DHT22;21057;51.024;7.540;2024-02-23T02:52:55;6.20;99.90
15455;DHT22;21057;51.024;7.540;2024-02-23T02:55:22;6.20;99.90
15455;DHT22;21057;51.024;7.540;2024-02-23T02:57:48;6.20;99.90
15455;DHT22;21057;51.024;7.540;2024-02-23T03:00:15;5.90;99.90
15455;DHT22;21057;51.024;7.540;2024-02-23T03:02:42;6.00;99.90
15455;DHT22;21057;51.024;7.540;2024-02-23T03:05:10;6.00;99.90
15455;DHT22;21057;51.024;7.540;2024-02-23T03:07:37;6.10;99.90
15455;DHT22;21057;51.024;7.540;2024-02-23T03:10:05;6.20;99.90
15455;DHT22;21057;51.024;7.540;2024-02-23T03:12:32;6.10;99.90
15455;DHT22;21057;51.024;7.540;2024-02-23T03:14:59;6.10;99.90
15455;DHT22;21057;51.024;7.540;2024-02-23T03:17:27;6.00;99.90
15455;DHT22;21057;51.024;7.540;2024-02-23T03:19:54;5.90;99.90
15455;DHT22;21057;51.024;7.540;2024-02-23T03:22:22;6.00;99.90
15455;DHT22;21057;51.024;7.540;2024-02-23T03:24:49;6.00;99.90
15455;DHT22;21057;51.024;7.540;2024-02-23T03:27:16;6.00;99.90
15455;DHT22;21057;51.024;7.540;2024-02-23T03:29:42;6.10;99.90
15455;DHT22;21057;51.024;7.540;2024-02-23T03:32:09;6.10;99.90
15455;DHT22;21057;51.024;7.540;2024-02-23T03:34:36;5.90;99.90
15455;DHT22;21057;51.024;7.540;2024-02-23T03:37:03;5.90;99.90
15455;DHT22;21057;51.024;7.540;2024-02-23T03:39:31;6.00;99.90
15455;DHT22;21057;51.024;7.540;2024-02-23T03:41:58;5.90;99.90
15455;DHT22;21057;51.024;7.540;2024-02-23T03:44:25;5.90;99.90
15455;DHT22;21057;51.024;7.540;2024-02-23T03:46:52;6.00;99.90
15455;DHT22;21057;51.024;7.540;2024-02-23T03:49:18;6.20;99.90
15455;DHT22;21057;51.024;7.540;2024-02-23T03:51:45;6.10;99.90
15455;DHT22;21057;51.024;7.540;2024-02-23T03:54:12;6.10;99.90
15455;DHT22;21057;51.024;7.540;2024-02-23T03:56:41;6.00;99.90
15455;DHT22;21057;51.024;7.540;2024-02-23T03:59:08;6.10;99.90
15455;DHT22;21057;51.024;7.540;2024-02-23T04:01:36;6.20;99.90
15455;DHT22;21057;51.024;7.540;2024-02-23T04:04:03;6.20;99.90
15455;DHT22;21057;51.024;7.540;2024-02-23T04:06:30;6.20;99.90
15455;DHT22;21057;51.024;7.540;2024-02-23T04:08:57;6.10;99.90
15455;DHT22;21057;51.024;7.540;2024-02-23T04:11:24;6.10;99.90
15455;DHT22;21057;51.024;7.540;2024-02-23T04:13:52;6.10;99.90
15455;DHT22;21057;51.024;7.540;2024-02-23T04:16:22;5.90;99.90
15455;DHT22;21057;51.024;7.540;2024-02-23T04:18:50;5.90;99.90
15455;DHT22;21057;51.024;7.540;2024-02-23T04:21:17;6.00;99.90
15455;DHT22;21057;51.024;7.540;2024-02-23T04:23:43;6.00;99.90
15455;DHT22;21057;51.024;7.540;2024-02-23T04:26:10;6.10;99.90
15455;DHT22;21057;51.024;7.540;2024-02-23T04:28:38;6.20;99.90
15455;DHT22;21057;51.024;7.540;2024-02-23T04:31:08;6.00;99.90
15455;DHT22;21057;51.024;7.540;2024-02-23T04:33:35;6.00;99.90
15455;DHT22;21057;51.024;7.540;2024-02-23T04:36:02;6.00;99.90
15455;DHT22;21057;51.024;7.540;2024-02-23T04:38:29;6.00;99.90
15455;DHT22;21057;51.024;7.540;2024-02-23T04:40:56;6.00;99.90
15455;DHT22;21057;51.024;7.540;2024-02-23T04:43:23;5.90;99.90
15455;DHT22;21057;51.024;7.540;2024-02-23T04:45:51;6.00;99.90
15455;DHT22;21057;51.024;7.540;2024-02-23T04:48:19;5.80;99.90
15455;DHT22;21057;51.024;7.540;2024-02-23T04:50:46;5.80;99.90
15455;DHT22;21057;51.024;7.540;2024-02-23T04:53:12;5.80;99.90
15455;DHT22;21057;51.024;7.540;2024-02-23T04:55:39;5.80;99.90
15455;DHT22;21057;51.024;7.540;2024-02-23T04:58:07;5.80;99.90
15455;DHT22;21057;51.024;7.540;2024-02-23T05:00:34;5.70;99.90
15455;DHT22;21057;51.024;7.540;2024-02-23T05:03:01;5.80;99.90
15455;DHT22;21057;51.024;7.540;2024-02-23T05:05:30;5.70;99.90
15455;DHT22;21057;51.024;7.540;2024-02-23T05:07:57;5.80;99.90
15455;DHT22;21057;51.024;7.540;2024-02-23T05:10:24;5.90;99.90
15455;DHT22;21057;51.024;7.540;2024-02-23T05:12:51;5.60;99.90
15455;DHT22;21057;51.024;7.540;2024-02-23T05:15:17;5.60;99.90
15455;DHT22;21057;51.024;7.540;2024-02-23T05:17:44;5.50;99.90
15455;DHT22;21057;51.024;7.540;2024-02-23T05:20:11;5.70;99.90
15455;DHT22;21057;51.024;7.540;2024-02-23T05:22:39;5.70;99.90
15455;DHT22;21057;51.024;7.540;2024-02-23T05:25:07;5.70;99.90
15455;DHT22;21057;51.024;7.540;2024-02-23T05:27:34;5.90;99.90
15455;DHT22;21057;51.024;7.540;2024-02-23T05:30:01;5.80;99.90
15455;DHT22;21057;51.024;7.540;2024-02-23T05:32:28;5.70;99.90
15455;DHT22;21057;51.024;7.540;2024-02-23T05:34:55;5.70;99.90
15455;DHT22;21057;51.024;7.540;2024-02-23T05:37:22;5.90;99.90
15455;DHT22;21057;51.024;7.540;2024-02-23T05:39:50;5.70;99.90
15455;DHT22;21057;51.024;7.540;2024-02-23T05:42:18;5.80;99.90
15455;DHT22;21057;51.024;7.540;2024-02-23T05:44:45;5.80;99.90
15455;DHT22;21057;51.024;7.540;2024-02-23T05:47:14;5.80;99.90
15455;DHT22;21057;51.024;7.540;2024-02-23T05:49:41;5.80;99.90
15455;DHT22;21057;51.024;7.540;2024-02-23T05:52:07;5.80;99.90
15455;DHT22;21057;51.024;7.540;2024-02-23T05:54:35;5.90;99.90
15455;DHT22;21057;51.024;7.540;2024-02-23T05:57:03;6.00;99.90
15455;DHT22;21057;51.024;7.540;2024-02-23T05:59:30;6.00;99.90
15455;DHT22;21057;51.024;7.540;2024-02-23T06:01:57;5.90;99.90
15455;DHT22;21057;51.024;7.540;2024-02-23T06:04:24;5.70;99.90
15455;DHT22;21057;51.024;7.540;2024-02-23T06:06:51;5.70;99.90
15455;DHT22;21057;51.024;7.540;2024-02-23T06:09:17;5.60;99.90
15455;DHT22;21057;51.024;7.540;2024-02-23T06:11:45;5.70;99.90
15455;DHT22;21057;51.024;7.540;2024-02-23T06:14:13;5.40;99.90
15455;DHT22;21057;51.024;7.540;2024-02-23T06:16:40;5.50;99.90
15455;DHT22;21057;51.024;7.540;2024-02-23T06:19:07;5.40;99.90
15455;DHT22;21057;51.024;7.540;2024-02-23T06:21:34;5.40;99.90
15455;DHT22;21057;51.024;7.540;2024-02-23T06:24:01;5.50;99.90
15455;DHT22;21057;51.024;7.540;2024-02-23T06:26:28;5.40;99.90
15455;DHT22;21057;51.024;7.540;2024-02-23T06:28:55;5.30;99.90
15455;DHT22;21057;51.024;7.540;2024-02-23T06:31:23;5.20;99.90
15455;DHT22;21057;51.024;7.540;2024-02-23T06:33:50;5.00;99.90
15455;DHT22;21057;51.024;7.540;2024-02-23T06:36:17;5.10;99.90
15455;DHT22;21057;51.024;7.540;2024-02-23T06:38:44;5.20;99.90
15455;DHT22;21057;51.024;7.540;2024-02-23T06:41:11;5.20;99.90
15455;DHT22;21057;51.024;7.540;2024-02-23T06:43:38;5.20;99.90
15455;DHT22;21057;51.024;7.540;2024-02-23T06:46:06;5.10;99.90
15455;DHT22;21057;51.024;7.540;2024-02-23T06:48:35;5.10;99.90
15455;DHT22;21057;51.024;7.540;2024-02-23T06:51:02;5.10;99.90
15455;DHT22;21057;51.024;7.540;2024-02-23T06:53:29;5.30;99.90
15455;DHT22;21057;51.024;7.540;2024-02-23T06:55:56;5.30;99.90
15455;DHT22;21057;51.024;7.540;2024-02-23T06:58:24;5.20;99.90
15455;DHT22;21057;51.024;7.540;2024-02-23T07:00:51;5.50;99.90
15455;DHT22;21057;51.024;7.540;2024-02-23T07:03:18;5.60;99.90
15455;DHT22;21057;51.024;7.540;2024-02-23T07:05:46;5.70;99.90
15455;DHT22;21057;51.024;7.540;2024-02-23T07:08:15;5.60;99.90
15455;DHT22;21057;51.024;7.540;2024-02-23T07:10:42;5.80;99.90
15455;DHT22;21057;51.024;7.540;2024-02-23T07:13:09;5.90;99.90
15455;DHT22;21057;51.024;7.540;2024-02-23T07:15:36;6.00;99.90
15455;DHT22;21057;51.024;7.540;2024-02-23T07:18:03;6.00;99.90
15455;DHT22;21057;51.024;7.540;2024-02-23T07:20:30;6.00;99.90
15455;DHT22;21057;51.024;7.540;2024-02-23T07:22:58;6.10;99.90
15455;DHT22;21057;51.024;7.540;2024-02-23T07:25:25;6.20;99.90
15455;DHT22;21057;51.024;7.540;2024-02-23T07:27:51;6.30;99.90
15455;DHT22;21057;51.024;7.540;2024-02-23T07:30:18;6.20;99.90
15455;DHT22;21057;51.024;7.540;2024-02-23T07:32:45;5.90;99.90
15455;DHT22;21057;51.024;7.540;2024-02-23T07:35:12;5.90;99.90
15455;DHT22;21057;51.024;7.540;2024-02-23T07:37:39;6.00;99.90
15455;DHT22;21057;51.024;7.540;2024-02-23T07:40:08;6.00;99.90
15455;DHT22;21057;51.024;7.540;2024-02-23T07:42:35;6.10;99.90
15455;DHT22;21057;51.024;7.540;2024-02-23T07:45:02;6.30;99.90
15455;DHT22;21057;51.024;7.540;2024-02-23T07:47:30;6.30;99.90
15455;DHT22;21057;51.024;7.540;2024-02-23T07:49:57;6.20;99.90
15455;DHT22;21057;51.024;7.540;2024-02-23T07:52:24;6.40;99.90
15455;DHT22;21057;51.024;7.540;2024-02-23T07:54:51;6.40;99.90
15455;DHT22;21057;51.024;7.540;2024-02-23T07:57:20;6.40;99.90
15455;DHT22;21057;51.024;7.540;2024-02-23T07:59:47;6.50;99.90
15455;DHT22;21057;51.024;7.540;2024-02-23T08:02:15;6.60;99.90
15455;DHT22;21057;51.024;7.540;2024-02-23T08:04:42;6.80;99.90
15455;DHT22;21057;51.024;7.540;2024-02-23T08:07:09;6.70;99.90
15455;DHT22;21057;51.024;7.540;2024-02-23T08:09:36;6.90;99.90
15455;DHT22;21057;51.024;7.540;2024-02-23T08:12:03;6.80;99.90
15455;DHT22;21057;51.024;7.540;2024-02-23T08:14:31;6.60;99.90
15455;DHT22;21057;51.024;7.540;2024-02-23T08:16:58;6.50;99.90
15455;DHT22;21057;51.024;7.540;2024-02-23T08:19:25;6.70;99.90
15455;DHT22;21057;51.024;7.540;2024-02-23T08:21:52;6.70;99.90
15455;DHT22;21057;51.024;7.540;2024-02-23T08:24:18;6.90;99.90
15455;DHT22;21057;51.024;7.540;2024-02-23T08:26:45;6.90;99.90
15455;DHT22;21057;51.024;7.540;2024-02-23T08:29:12;6.90;99.90
15455;DHT22;21057;51.024;7.540;2024-02-23T08:31:41;6.80;99.90
15455;DHT22;21057;51.024;7.540;2024-02-23T08:34:07;6.70;99.90
15455;DHT22;21057;51.024;7.540;2024-02-23T08:36:34;6.90;99.90
15455;DHT22;21057;51.024;7.540;2024-02-23T08:39:01;7.00;99.90
15455;DHT22;21057;51.024;7.540;2024-02-23T08:41:28;6.90;99.90
15455;DHT22;21057;51.024;7.540;2024-02-23T08:43:55;7.00;99.90
15455;DHT22;21057;51.024;7.540;2024-02-23T08:46:22;6.90;99.90
15455;DHT22;21057;51.024;7.540;2024-02-23T08:48:50;7.00;99.90
15455;DHT22;21057;51.024;7.540;2024-02-23T08:51:17;7.20;99.90
15455;DHT22;21057;51.024;7.540;2024-02-23T08:53:44;7.10;99.90
15455;DHT22;21057;51.024;7.540;2024-02-23T08:56:11;7.10;99.90
15455;DHT22;21057;51.024;7.540;2024-02-23T08:58:38;7.10;99.90
15455;DHT22;21057;51.024;7.540;2024-02-23T09:01:05;7.20;99.90
15455;DHT22;21057;51.024;7.540;2024-02-23T09:03:32;7.30;99.90
15455;DHT22;21057;51.024;7.540;2024-02-23T09:06:00;7.20;99.90
15455;DHT22;21057;51.024;7.540;2024-02-23T09:08:27;7.30;99.90
15455;DHT22;21057;51.024;7.540;2024-02-23T09:10:54;7.20;99.90
15455;DHT22;21057;51.024;7.540;2024-02-23T09:13:20;7.30;99.90
15455;DHT22;21057;51.024;7.540;2024-02-23T09:15:47;7.40;99.90
15455;DHT22;21057;51.024;7.540;2024-02-23T09:18:14;7.20;99.90
15455;DHT22;21057;51.024;7.540;2024-02-23T09:20:41;7.30;99.90
15455;DHT22;21057;51.024;7.540;2024-02-23T09:23:09;7.50;99.90
15455;DHT22;21057;51.024;7.540;2024-02-23T09:25:36;7.50;99.90
15455;DHT22;21057;51.024;7.540;2024-02-23T09:28:02;7.60;99.90
15455;DHT22;21057;51.024;7.540;2024-02-23T09:30:29;7.50;99.90
15455;DHT22;21057;51.024;7.540;2024-02-23T09:32:56;7.80;99.90
15455;DHT22;21057;51.024;7.540;2024-02-23T09:35:23;7.80;99.90
15455;DHT22;21057;51.024;7.540;2024-02-23T09:37:50;7.80;99.90
15455;DHT22;21057;51.024;7.540;2024-02-23T09:40:19;7.90;99.90
15455;DHT22;21057;51.024;7.540;2024-02-23T09:42:52;7.90;99.90
15455;DHT22;21057;51.024;7.540;2024-02-23T09:45:21;7.70;99.90
15455;DHT22;21057;51.024;7.540;2024-02-23T09:47:49;7.70;99.90
15455;DHT22;21057;51.024;7.540;2024-02-23T09:50:17;7.80;99.90
15455;DHT22;21057;51.024;7.540;2024-02-23T09:52:47;7.90;99.90
15455;DHT22;21057;51.024;7.540;2024-02-23T09:55:16;7.70;99.90
15455;DHT22;21057;51.024;7.540;2024-02-23T09:57:44;7.60;99.90
15455;DHT22;21057;51.024;7.540;2024-02-23T10:00:18;7.50;99.90
15455;DHT22;21057;51.024;7.540;2024-02-23T10:02:45;7.30;99.90
15455;DHT22;21057;51.024;7.540;2024-02-23T10:05:12;7.10;99.90
15455;DHT22;21057;51.024;7.540;2024-02-23T10:07:40;7.20;99.90
15455;DHT22;21057;51.024;7.540;2024-02-23T10:10:08;7.40;99.90
15455;DHT22;21057;51.024;7.540;2024-02-23T10:12:36;7.60;99.90
15455;DHT22;21057;51.024;7.540;2024-02-23T10:15:05;7.50;99.90
15455;DHT22;21057;51.024;7.540;2024-02-23T10:17:32;7.60;99.90
15455;DHT22;21057;51.024;7.540;2024-02-23T10:19:59;8.30;99.90
15455;DHT22;21057;51.024;7.540;2024-02-23T10:22:30;8.70;99.90
15455;DHT22;21057;51.024;7.540;2024-02-23T10:24:57;9.00;99.90
15455;DHT22;21057;51.024;7.540;2024-02-23T10:27:23;9.10;99.90
15455;DHT22;21057;51.024;7.540;2024-02-23T10:29:50;8.90;99.90
15455;DHT22;21057;51.024;7.540;2024-02-23T10:32:19;8.80;99.90
15455;DHT22;21057;51.024;7.540;2024-02-23T10:34:48;8.90;99.90
15455;DHT22;21057;51.024;7.540;2024-02-23T10:37:16;8.80;99.90
15455;DHT22;21057;51.024;7.540;2024-02-23T10:39:43;8.60;99.90
15455;DHT22;21057;51.024;7.540;2024-02-23T10:42:10;8.80;99.90
15455;DHT22;21057;51.024;7.540;2024-02-23T10:44:37;8.90;99.90
15455;DHT22;21057;51.024;7.540;2024-02-23T10:47:07;9.00;99.90
15455;DHT22;21057;51.024;7.540;2024-02-23T10:49:36;9.10;99.90
15455;DHT22;21057;51.024;7.540;2024-02-23T10:52:07;9.10;99.90
15455;DHT22;21057;51.024;7.540;2024-02-23T10:54:38;8.90;99.90
15455;DHT22;21057;51.024;7.540;2024-02-23T10:57:06;9.00;99.90
15455;DHT22;21057;51.024;7.540;2024-02-23T10:59:33;9.20;99.90
15455;DHT22;21057;51.024;7.540;2024-02-23T11:02:01;9.10;99.90
15455;DHT22;21057;51.024;7.540;2024-02-23T11:04:29;8.90;99.90
15455;DHT22;21057;51.024;7.540;2024-02-23T11:06:58;8.80;99.90
15455;DHT22;21057;51.024;7.540;2024-02-23T11:09:31;8.70;99.90
15455;DHT22;21057;51.024;7.540;2024-02-23T11:11:58;8.90;99.90
15455;DHT22;21057;51.024;7.540;2024-02-23T11:14:29;9.00;99.90
15455;DHT22;21057;51.024;7.540;2024-02-23T11:16:58;9.20;99.90
15455;DHT22;21057;51.024;7.540;2024-02-23T11:19:32;9.90;99.90
15455;DHT22;21057;51.024;7.540;2024-02-23T11:22:01;10.20;99.90
15455;DHT22;21057;51.024;7.540;2024-02-23T11:24:29;10.20;99.90
15455;DHT22;21057;51.024;7.540;2024-02-23T11:26:59;10.30;99.90
15455;DHT22;21057;51.024;7.540;2024-02-23T11:29:33;10.30;99.90
15455;DHT22;21057;51.024;7.540;2024-02-23T11:32:02;9.70;99.90
15455;DHT22;21057;51.024;7.540;2024-02-23T11:34:29;9.60;99.90
15455;DHT22;21057;51.024;7.540;2024-02-23T11:36:56;9.60;99.90
15455;DHT22;21057;51.024;7.540;2024-02-23T11:39:26;9.70;99.90
15455;DHT22;21057;51.024;7.540;2024-02-23T11:41:53;9.80;99.90
15455;DHT22;21057;51.024;7.540;2024-02-23T11:44:20;9.70;99.90
15455;DHT22;21057;51.024;7.540;2024-02-23T11:46:47;9.60;99.90
15455;DHT22;21057;51.024;7.540;2024-02-23T11:49:14;9.20;99.90
15455;DHT22;21057;51.024;7.540;2024-02-23T11:51:41;9.30;99.90
15455;DHT22;21057;51.024;7.540;2024-02-23T11:54:08;9.40;99.90
15455;DHT22;21057;51.024;7.540;2024-02-23T11:56:37;9.70;99.90
15455;DHT22;21057;51.024;7.540;2024-02-23T11:59:03;9.70;99.90
15455;DHT22;21057;51.024;7.540;2024-02-23T12:01:31;9.40;99.90
15455;DHT22;21057;51.024;7.540;2024-02-23T12:03:58;9.40;99.90
15455;DHT22;21057;51.024;7.540;2024-02-23T12:06:24;9.60;99.90
15455;DHT22;21057;51.024;7.540;2024-02-23T12:08:54;9.70;99.90
15455;DHT22;21057;51.024;7.540;2024-02-23T12:11:21;9.60;99.90
15455;DHT22;21057;51.024;7.540;2024-02-23T12:13:50;9.90;99.90
15455;DHT22;21057;51.024;7.540;2024-02-23T12:16:16;10.20;99.90
15455;DHT22;21057;51.024;7.540;2024-02-23T12:18:43;10.40;99.90
15455;DHT22;21057;51.024;7.540;2024-02-23T12:21:10;10.40;99.90
15455;DHT22;21057;51.024;7.540;2024-02-23T12:23:40;10.60;99.90
15455;DHT22;21057;51.024;7.540;2024-02-23T12:26:08;10.70;99.90
15455;DHT22;21057;51.024;7.540;2024-02-23T12:28:36;10.80;99.90
15455;DHT22;21057;51.024;7.540;2024-02-23T12:31:06;10.60;99.90
15455;DHT22;21057;51.024;7.540;2024-02-23T12:33:33;10.10;99.90
15455;DHT22;21057;51.024;7.540;2024-02-23T12:36:03;10.20;99.90
15455;DHT22;21057;51.024;7.540;2024-02-23T12:38:30;10.20;99.90
15455;DHT22;21057;51.024;7.540;2024-02-23T12:40:57;10.10;99.90
15455;DHT22;21057;51.024;7.540;2024-02-23T12:43:24;9.60;99.90
15455;DHT22;21057;51.024;7.540;2024-02-23T12:45:51;9.40;99.90
15455;DHT22;21057;51.024;7.540;2024-02-23T12:48:20;9.30;99.90
15455;DHT22;21057;51.024;7.540;2024-02-23T12:50:47;9.10;99.90
15455;DHT22;21057;51.024;7.540;2024-02-23T12:53:31;9.20;99.90
15455;DHT22;21057;51.024;7.540;2024-02-23T12:55:59;9.10;99.90
15455;DHT22;21057;51.024;7.540;2024-02-23T12:58:26;9.10;99.90
15455;DHT22;21057;51.024;7.540;2024-02-23T13:00:52;9.40;99.90
15455;DHT22;21057;51.024;7.540;2024-02-23T13:03:21;9.30;99.90
15455;DHT22;21057;51.024;7.540;2024-02-23T13:05:47;9.30;99.90
15455;DHT22;21057;51.024;7.540;2024-02-23T13:08:15;9.40;99.90
15455;DHT22;21057;51.024;7.540;2024-02-23T13:10:42;9.10;99.90
15455;DHT22;21057;51.024;7.540;2024-02-23T13:13:09;9.10;99.90
15455;DHT22;21057;51.024;7.540;2024-02-23T13:15:35;9.20;99.90
15455;DHT22;21057;51.024;7.540;2024-02-23T13:18:03;9.00;99.90
15455;DHT22;21057;51.024;7.540;2024-02-23T13:20:31;8.90;99.90
15455;DHT22;21057;51.024;7.540;2024-02-23T13:22:58;9.10;99.90
15455;DHT22;21057;51.024;7.540;2024-02-23T13:25:25;9.20;99.90
15455;DHT22;21057;51.024;7.540;2024-02-23T13:27:51;9.10;99.90
15455;DHT22;21057;51.024;7.540;2024-02-23T13:30:18;9.30;99.90
15455;DHT22;21057;51.024;7.540;2024-02-23T13:32:45;9.40;99.90
15455;DHT22;21057;51.024;7.540;2024-02-23T13:35:12;9.30;99.90
15455;DHT22;21057;51.024;7.540;2024-02-23T13:37:41;9.30;99.90
15455;DHT22;21057;51.024;7.540;2024-02-23T13:40:09;9.30;99.90
15455;DHT22;21057;51.024;7.540;2024-02-23T13:42:36;9.00;99.90
15455;DHT22;21057;51.024;7.540;2024-02-23T13:45:05;8.90;99.90
15455;DHT22;21057;51.024;7.540;2024-02-23T13:47:32;8.80;99.90
15455;DHT22;21057;51.024;7.540;2024-02-23T13:49:59;8.90;99.90
15455;DHT22;21057;51.024;7.540;2024-02-23T13:52:26;9.00;99.90
15455;DHT22;21057;51.024;7.540;2024-02-23T13:54:54;9.30;99.90
15455;DHT22;21057;51.024;7.540;2024-02-23T13:57:21;9.40;99.90
15455;DHT22;21057;51.024;7.540;2024-02-23T13:59:48;9.40;99.90
15455;DHT22;21057;51.024;7.540;2024-02-23T14:02:15;9.70;99.90
15455;DHT22;21057;51.024;7.540;2024-02-23T14:04:44;9.90;99.90
15455;DHT22;21057;51.024;7.540;2024-02-23T14:07:11;9.90;99.90
15455;DHT22;21057;51.024;7.540;2024-02-23T14:09:38;9.90;99.90
15455;DHT22;21057;51.024;7.540;2024-02-23T14:12:07;9.70;99.90
15455;DHT22;21057;51.024;7.540;2024-02-23T14:14:34;9.60;99.90
15455;DHT22;21057;51.024;7.540;2024-02-23T14:17:00;9.60;99.90
15455;DHT22;21057;51.024;7.540;2024-02-23T14:19:27;9.60;99.90
15455;DHT22;21057;51.024;7.540;2024-02-23T14:21:54;9.60;99.90
15455;DHT22;21057;51.024;7.540;2024-02-23T14:24:21;10.00;99.90
15455;DHT22;21057;51.024;7.540;2024-02-23T14:26:48;10.90;99.90
15455;DHT22;21057;51.024;7.540;2024-02-23T14:29:16;11.40;99.90
15455;DHT22;21057;51.024;7.540;2024-02-23T14:31:43;11.20;99.90
15455;DHT22;21057;51.024;7.540;2024-02-23T14:34:10;11.00;99.90
15455;DHT22;21057;51.024;7.540;2024-02-23T14:36:36;10.80;99.90
15455;DHT22;21057;51.024;7.540;2024-02-23T14:39:03;11.00;99.90
15455;DHT22;21057;51.024;7.540;2024-02-23T14:41:30;11.00;99.90
15455;DHT22;21057;51.024;7.540;2024-02-23T14:43:57;11.40;99.90
15455;DHT22;21057;51.024;7.540;2024-02-23T14:46:25;11.80;99.90
15455;DHT22;21057;51.024;7.540;2024-02-23T14:48:52;11.70;99.90
15455;DHT22;21057;51.024;7.540;2024-02-23T14:51:19;11.70;99.90
15455;DHT22;21057;51.024;7.540;2024-02-23T14:53:46;11.60;99.90
15455;DHT22;21057;51.024;7.540;2024-02-23T14:56:13;11.60;99.90
15455;DHT22;21057;51.024;7.540;2024-02-23T14:58:39;11.30;99.90
15455;DHT22;21057;51.024;7.540;2024-02-23T15:01:06;10.90;99.90
15455;DHT22;21057;51.024;7.540;2024-02-23T15:03:35;10.60;99.90
15455;DHT22;21057;51.024;7.540;2024-02-23T15:06:02;10.40;99.90
15455;DHT22;21057;51.024;7.540;2024-02-23T15:08:29;10.10;99.90
15455;DHT22;21057;51.024;7.540;2024-02-23T15:10:56;10.00;99.90
15455;DHT22;21057;51.024;7.540;2024-02-23T15:13:23;9.80;99.90
15455;DHT22;21057;51.024;7.540;2024-02-23T15:15:50;9.90;99.90
15455;DHT22;21057;51.024;7.540;2024-02-23T15:18:17;9.80;99.90
15455;DHT22;21057;51.024;7.540;2024-02-23T15:20:45;10.00;99.90
15455;DHT22;21057;51.024;7.540;2024-02-23T15:23:13;9.90;99.90
15455;DHT22;21057;51.024;7.540;2024-02-23T15:25:40;9.90;99.90
15455;DHT22;21057;51.024;7.540;2024-02-23T15:28:07;9.70;99.90
15455;DHT22;21057;51.024;7.540;2024-02-23T15:30:34;9.60;99.90
15455;DHT22;21057;51.024;7.540;2024-02-23T15:33:00;9.50;99.90
15455;DHT22;21057;51.024;7.540;2024-02-23T15:35:27;9.40;99.90
15455;DHT22;21057;51.024;7.540;2024-02-23T15:37:56;9.40;99.90
15455;DHT22;21057;51.024;7.540;2024-02-23T15:40:23;9.40;99.90
15455;DHT22;21057;51.024;7.540;2024-02-23T15:42:50;9.50;99.90
15455;DHT22;21057;51.024;7.540;2024-02-23T15:45:17;9.40;99.90